FDX8500 KCHS-KCMH
Flight info
| Callsign | FDX8500 |
|---|---|
| Flight time | 1h 11m |
| Altitude | 32000 |
| Route | MLTRE3 JYMSE BZM MCGNS SCRLT2 |
| Aircraft | B77L/H-SDE1E2E3FGHIJ2J3J4J5M1RWXY/LB1D1 |
Departure
| Time | 2026-04-21 08:08 |
|---|---|
| Airport | Charleston International Airport (KCHS) |
Arrival
| Time | 2026-04-21 09:19 |
|---|---|
| Airport | John Glenn Columbus International Airport (KCMH) |
| Time | Latitude | Longitude | Altitude | Speed | Heading |
|---|---|---|---|---|---|
| 2026-04-21 07:39 | 32.87941 | -80.03053 | 45 ft | 0 kts | 237° |
| 2026-04-21 07:53 | 32.87941 | -80.03052 | 45 ft | 1 kts | 237° |
| 2026-04-21 07:53 | 32.87955 | -80.03027 | 43 ft | 4 kts | 237° |
| 2026-04-21 07:53 | 32.87970 | -80.03000 | 42 ft | 4 kts | 237° |
| 2026-04-21 07:54 | 32.87984 | -80.02973 | 42 ft | 4 kts | 237° |
| 2026-04-21 07:54 | 32.87996 | -80.02950 | 42 ft | 4 kts | 257° |
| 2026-04-21 07:54 | 32.87992 | -80.02927 | 43 ft | 4 kts | 325° |
| 2026-04-21 07:54 | 32.87973 | -80.02913 | 45 ft | 0 kts | 327° |
| 2026-04-21 07:56 | 32.88007 | -80.02938 | 41 ft | 12 kts | 328° |
| 2026-04-21 07:57 | 32.88082 | -80.02995 | 45 ft | 13 kts | 327° |
| 2026-04-21 07:57 | 32.88145 | -80.03044 | 45 ft | 0 kts | 327° |
| 2026-04-21 07:57 | 32.88148 | -80.03046 | 45 ft | 3 kts | 328° |
| 2026-04-21 07:57 | 32.88189 | -80.03076 | 45 ft | 8 kts | 328° |
| 2026-04-21 07:58 | 32.88234 | -80.03109 | 45 ft | 8 kts | 328° |
| 2026-04-21 07:58 | 32.88280 | -80.03143 | 45 ft | 8 kts | 327° |
| 2026-04-21 07:58 | 32.88326 | -80.03179 | 45 ft | 8 kts | 327° |
| 2026-04-21 07:58 | 32.88372 | -80.03215 | 45 ft | 8 kts | 328° |
| 2026-04-21 07:59 | 32.88419 | -80.03249 | 45 ft | 8 kts | 328° |
| 2026-04-21 07:59 | 32.88465 | -80.03283 | 45 ft | 8 kts | 327° |
| 2026-04-21 07:59 | 32.88511 | -80.03319 | 45 ft | 8 kts | 327° |
| 2026-04-21 07:59 | 32.88557 | -80.03354 | 45 ft | 8 kts | 327° |
| 2026-04-21 08:00 | 32.88587 | -80.03377 | 45 ft | 0 kts | 327° |
| 2026-04-21 08:00 | 32.88591 | -80.03380 | 45 ft | 3 kts | 327° |
| 2026-04-21 08:00 | 32.88630 | -80.03409 | 45 ft | 10 kts | 328° |
| 2026-04-21 08:00 | 32.88687 | -80.03455 | 45 ft | 10 kts | 318° |
| 2026-04-21 08:01 | 32.88721 | -80.03525 | 45 ft | 10 kts | 291° |
| 2026-04-21 08:01 | 32.88741 | -80.03593 | 45 ft | 5 kts | 289° |
| 2026-04-21 08:01 | 32.88763 | -80.03626 | 45 ft | 5 kts | 324° |
| 2026-04-21 08:02 | 32.88835 | -80.03629 | 45 ft | 5 kts | 7° |
| 2026-04-21 08:02 | 32.88872 | -80.03623 | 45 ft | 5 kts | 7° |
| 2026-04-21 08:02 | 32.88909 | -80.03617 | 45 ft | 5 kts | 8° |
| 2026-04-21 08:02 | 32.88946 | -80.03611 | 45 ft | 5 kts | 8° |
| 2026-04-21 08:03 | 32.88983 | -80.03605 | 45 ft | 5 kts | 8° |
| 2026-04-21 08:03 | 32.89017 | -80.03585 | 45 ft | 5 kts | 41° |
| 2026-04-21 08:03 | 32.89042 | -80.03551 | 45 ft | 6 kts | 50° |
| 2026-04-21 08:03 | 32.89091 | -80.03479 | 45 ft | 10 kts | 51° |
| 2026-04-21 08:04 | 32.89095 | -80.03473 | 45 ft | 1 kts | 51° |
| 2026-04-21 08:04 | 32.89131 | -80.03417 | 46 ft | 11 kts | 54° |
| 2026-04-21 08:04 | 32.89173 | -80.03342 | 46 ft | 11 kts | 57° |
| 2026-04-21 08:04 | 32.89214 | -80.03269 | 45 ft | 7 kts | 56° |
| 2026-04-21 08:05 | 32.89252 | -80.03264 | 45 ft | 6 kts | 336° |
| 2026-04-21 08:05 | 32.89291 | -80.03291 | 45 ft | 10 kts | 328° |
| 2026-04-21 08:05 | 32.89371 | -80.03352 | 44 ft | 0 kts | 326° |
| 2026-04-21 08:07 | 32.89414 | -80.03384 | 43 ft | 24 kts | 327° |
| 2026-04-21 08:07 | 32.89802 | -80.03677 | 44 ft | 108 kts | 327° |
| 2026-04-21 08:07 | 32.90651 | -80.04314 | 45 ft | 177 kts | 328° |
| 2026-04-21 08:07 | 32.91779 | -80.05199 | 459 ft | 194 kts | 323° |
| 2026-04-21 08:08 | 32.92874 | -80.06121 | 1437 ft | 192 kts | 325° |
| 2026-04-21 08:08 | 32.94121 | -80.06776 | 2089 ft | 206 kts | 335° |
| 2026-04-21 08:08 | 32.95539 | -80.07383 | 2342 ft | 234 kts | 336° |
| 2026-04-21 08:08 | 32.97156 | -80.08074 | 2784 ft | 253 kts | 337° |
| 2026-04-21 08:09 | 32.98828 | -80.08803 | 3637 ft | 257 kts | 338° |
| 2026-04-21 08:09 | 33.00499 | -80.09552 | 4595 ft | 257 kts | 338° |
| 2026-04-21 08:09 | 33.02176 | -80.10320 | 5515 ft | 258 kts | 337° |
| 2026-04-21 08:09 | 33.03853 | -80.11103 | 6413 ft | 259 kts | 337° |
| 2026-04-21 08:10 | 33.05509 | -80.11886 | 7276 ft | 259 kts | 337° |
| 2026-04-21 08:10 | 33.07189 | -80.12688 | 8116 ft | 261 kts | 337° |
| 2026-04-21 08:10 | 33.08879 | -80.13500 | 8956 ft | 263 kts | 336° |
| 2026-04-21 08:10 | 33.10584 | -80.14323 | 9818 ft | 265 kts | 336° |
| 2026-04-21 08:11 | 33.12304 | -80.15156 | 10515 ft | 272 kts | 336° |
| 2026-04-21 08:11 | 33.14137 | -80.16048 | 10736 ft | 297 kts | 336° |
| 2026-04-21 08:11 | 33.16141 | -80.17025 | 10961 ft | 322 kts | 336° |
| 2026-04-21 08:11 | 33.18288 | -80.18071 | 11350 ft | 341 kts | 336° |
| 2026-04-21 08:12 | 33.20489 | -80.19142 | 12083 ft | 349 kts | 336° |
| 2026-04-21 08:12 | 33.22752 | -80.20243 | 13073 ft | 352 kts | 336° |
| 2026-04-21 08:12 | 33.25040 | -80.21359 | 14116 ft | 355 kts | 336° |
| 2026-04-21 08:12 | 33.27341 | -80.22481 | 15017 ft | 358 kts | 336° |
| 2026-04-21 08:13 | 33.29633 | -80.23601 | 15863 ft | 362 kts | 336° |
| 2026-04-21 08:13 | 33.31982 | -80.24750 | 16724 ft | 366 kts | 336° |
| 2026-04-21 08:13 | 33.34351 | -80.25901 | 17579 ft | 369 kts | 336° |
| 2026-04-21 08:13 | 33.36772 | -80.27024 | 18434 ft | 374 kts | 337° |
| 2026-04-21 08:14 | 33.39210 | -80.28128 | 19165 ft | 377 kts | 337° |
| 2026-04-21 08:14 | 33.41681 | -80.29246 | 19900 ft | 381 kts | 337° |
| 2026-04-21 08:14 | 33.44147 | -80.30367 | 20610 ft | 384 kts | 336° |
| 2026-04-21 08:14 | 33.46661 | -80.31514 | 21312 ft | 388 kts | 336° |
| 2026-04-21 08:15 | 33.49193 | -80.32673 | 22007 ft | 391 kts | 336° |
| 2026-04-21 08:15 | 33.51737 | -80.33840 | 22696 ft | 395 kts | 336° |
| 2026-04-21 08:15 | 33.54327 | -80.35028 | 23382 ft | 399 kts | 336° |
| 2026-04-21 08:15 | 33.56969 | -80.36149 | 24025 ft | 403 kts | 338° |
| 2026-04-21 08:16 | 33.59634 | -80.37161 | 24628 ft | 406 kts | 340° |
| 2026-04-21 08:16 | 33.62363 | -80.38152 | 25265 ft | 408 kts | 340° |
| 2026-04-21 08:16 | 33.65059 | -80.39124 | 25846 ft | 410 kts | 340° |
| 2026-04-21 08:16 | 33.67808 | -80.40121 | 26403 ft | 413 kts | 340° |
| 2026-04-21 08:17 | 33.70575 | -80.41134 | 26953 ft | 416 kts | 339° |
| 2026-04-21 08:17 | 33.73359 | -80.42162 | 27494 ft | 419 kts | 339° |
| 2026-04-21 08:17 | 33.76129 | -80.43191 | 28032 ft | 422 kts | 339° |
| 2026-04-21 08:17 | 33.78940 | -80.44239 | 28559 ft | 424 kts | 339° |
| 2026-04-21 08:18 | 33.81775 | -80.45299 | 29053 ft | 427 kts | 339° |
| 2026-04-21 08:18 | 33.84634 | -80.46370 | 29570 ft | 430 kts | 339° |
| 2026-04-21 08:18 | 33.87475 | -80.47435 | 30017 ft | 432 kts | 339° |
| 2026-04-21 08:18 | 33.90363 | -80.48519 | 30437 ft | 435 kts | 339° |
| 2026-04-21 08:19 | 33.93263 | -80.49606 | 30888 ft | 434 kts | 339° |
| 2026-04-21 08:19 | 33.96136 | -80.50684 | 31458 ft | 431 kts | 339° |
| 2026-04-21 08:19 | 33.98024 | -80.51392 | 31832 ft | 429 kts | 339° |
| 2026-04-21 08:19 | 34.00880 | -80.52464 | 32297 ft | 429 kts | 339° |
| 2026-04-21 08:20 | 34.03742 | -80.53542 | 32286 ft | 432 kts | 339° |
| 2026-04-21 08:20 | 34.09464 | -80.55697 | 32288 ft | 427 kts | 339° |
| 2026-04-21 08:21 | 34.15123 | -80.57831 | 32326 ft | 427 kts | 339° |
| 2026-04-21 08:21 | 34.20797 | -80.59975 | 32333 ft | 428 kts | 339° |
| 2026-04-21 08:22 | 34.26461 | -80.62118 | 32335 ft | 429 kts | 339° |
| 2026-04-21 08:22 | 34.32190 | -80.64288 | 32310 ft | 429 kts | 339° |
| 2026-04-21 08:23 | 34.37874 | -80.66443 | 32347 ft | 430 kts | 339° |
| 2026-04-21 08:23 | 34.43562 | -80.68604 | 32325 ft | 431 kts | 340° |
| 2026-04-21 08:24 | 34.49303 | -80.70788 | 32336 ft | 431 kts | 340° |
| 2026-04-21 08:24 | 34.55050 | -80.72977 | 32331 ft | 431 kts | 340° |
| 2026-04-21 08:25 | 34.60752 | -80.75152 | 32337 ft | 431 kts | 340° |
| 2026-04-21 08:25 | 34.66478 | -80.77340 | 32354 ft | 432 kts | 340° |
| 2026-04-21 08:26 | 34.72212 | -80.79533 | 32347 ft | 431 kts | 340° |
| 2026-04-21 08:26 | 34.77910 | -80.81716 | 32341 ft | 431 kts | 340° |
| 2026-04-21 08:27 | 34.83633 | -80.83912 | 32340 ft | 430 kts | 340° |
| 2026-04-21 08:27 | 34.89363 | -80.86113 | 32340 ft | 430 kts | 340° |
| 2026-04-21 08:28 | 34.95052 | -80.88303 | 32345 ft | 430 kts | 340° |
| 2026-04-21 08:28 | 35.00743 | -80.90496 | 32346 ft | 430 kts | 340° |
| 2026-04-21 08:29 | 35.06465 | -80.92704 | 32349 ft | 429 kts | 340° |
| 2026-04-21 08:29 | 35.12138 | -80.94896 | 32355 ft | 429 kts | 340° |
| 2026-04-21 08:30 | 35.17817 | -80.97095 | 32364 ft | 429 kts | 340° |
| 2026-04-21 08:30 | 35.23538 | -80.99313 | 32337 ft | 429 kts | 340° |
| 2026-04-21 08:31 | 35.29203 | -81.01512 | 32346 ft | 430 kts | 340° |
| 2026-04-21 08:31 | 35.34920 | -81.03735 | 32361 ft | 430 kts | 340° |
| 2026-04-21 08:32 | 35.40605 | -81.05948 | 32372 ft | 430 kts | 340° |
| 2026-04-21 08:32 | 35.46318 | -81.08176 | 32373 ft | 430 kts | 340° |
| 2026-04-21 08:33 | 35.52003 | -81.10396 | 32368 ft | 430 kts | 340° |
| 2026-04-21 08:33 | 35.57683 | -81.12618 | 32372 ft | 430 kts | 340° |
| 2026-04-21 08:34 | 35.63408 | -81.14861 | 32354 ft | 430 kts | 340° |
| 2026-04-21 08:34 | 35.69128 | -81.17105 | 32356 ft | 430 kts | 340° |
| 2026-04-21 08:35 | 35.74806 | -81.19336 | 32357 ft | 430 kts | 340° |
| 2026-04-21 08:35 | 35.80493 | -81.21574 | 32357 ft | 430 kts | 340° |
| 2026-04-21 08:36 | 35.86212 | -81.23827 | 32327 ft | 430 kts | 340° |
| 2026-04-21 08:36 | 35.91942 | -81.25915 | 32341 ft | 431 kts | 342° |
| 2026-04-21 08:37 | 35.97754 | -81.27837 | 32369 ft | 432 kts | 342° |
| 2026-04-21 08:37 | 36.03560 | -81.29763 | 32373 ft | 431 kts | 342° |
| 2026-04-21 08:38 | 36.09325 | -81.31707 | 32380 ft | 431 kts | 341° |
| 2026-04-21 08:38 | 36.15124 | -81.33680 | 32385 ft | 430 kts | 341° |
| 2026-04-21 08:39 | 36.20873 | -81.35643 | 32411 ft | 431 kts | 341° |
| 2026-04-21 08:39 | 36.26658 | -81.37620 | 32348 ft | 431 kts | 341° |
| 2026-04-21 08:40 | 36.32454 | -81.39604 | 32348 ft | 431 kts | 341° |
| 2026-04-21 08:40 | 36.38236 | -81.41586 | 32344 ft | 430 kts | 341° |
| 2026-04-21 08:41 | 36.43979 | -81.43557 | 32348 ft | 430 kts | 341° |
| 2026-04-21 08:41 | 36.49759 | -81.45544 | 32357 ft | 430 kts | 341° |
| 2026-04-21 08:42 | 36.55511 | -81.47524 | 32349 ft | 430 kts | 341° |
| 2026-04-21 08:42 | 36.61271 | -81.49510 | 32342 ft | 430 kts | 341° |
| 2026-04-21 08:43 | 36.67065 | -81.51512 | 32358 ft | 430 kts | 341° |
| 2026-04-21 08:43 | 36.72816 | -81.53502 | 32372 ft | 431 kts | 341° |
| 2026-04-21 08:44 | 36.78620 | -81.55513 | 32371 ft | 432 kts | 341° |
| 2026-04-21 08:44 | 36.84391 | -81.57515 | 32339 ft | 432 kts | 341° |
| 2026-04-21 08:45 | 36.90205 | -81.59535 | 32344 ft | 432 kts | 341° |
| 2026-04-21 08:45 | 36.95984 | -81.61547 | 32357 ft | 432 kts | 341° |
| 2026-04-21 08:46 | 37.01791 | -81.63572 | 32335 ft | 432 kts | 341° |
| 2026-04-21 08:46 | 37.07560 | -81.65586 | 32331 ft | 432 kts | 341° |
| 2026-04-21 08:47 | 37.13322 | -81.67601 | 32339 ft | 431 kts | 341° |
| 2026-04-21 08:47 | 37.19095 | -81.69624 | 32359 ft | 430 kts | 341° |
| 2026-04-21 08:48 | 37.24884 | -81.71655 | 32339 ft | 430 kts | 341° |
| 2026-04-21 08:48 | 37.30628 | -81.73674 | 32332 ft | 430 kts | 341° |
| 2026-04-21 08:49 | 37.36398 | -81.75705 | 32332 ft | 430 kts | 341° |
| 2026-04-21 08:49 | 37.42147 | -81.77732 | 32328 ft | 430 kts | 341° |
| 2026-04-21 08:50 | 37.47928 | -81.79773 | 32323 ft | 431 kts | 341° |
| 2026-04-21 08:50 | 37.53671 | -81.81804 | 32329 ft | 431 kts | 341° |
| 2026-04-21 08:51 | 37.59451 | -81.83853 | 32323 ft | 431 kts | 341° |
| 2026-04-21 08:51 | 37.65212 | -81.85896 | 32347 ft | 431 kts | 341° |
| 2026-04-21 08:52 | 37.71003 | -81.87955 | 32322 ft | 431 kts | 341° |
| 2026-04-21 08:52 | 37.76747 | -81.90000 | 32340 ft | 430 kts | 341° |
| 2026-04-21 08:53 | 37.82538 | -81.92065 | 32335 ft | 430 kts | 341° |
| 2026-04-21 08:53 | 37.88286 | -81.94117 | 32338 ft | 431 kts | 341° |
| 2026-04-21 08:54 | 37.94072 | -81.96187 | 32349 ft | 431 kts | 341° |
| 2026-04-21 08:54 | 37.99841 | -81.98254 | 32342 ft | 432 kts | 341° |
| 2026-04-21 08:55 | 38.05646 | -82.00337 | 32341 ft | 432 kts | 341° |
| 2026-04-21 08:55 | 38.11397 | -82.02405 | 32343 ft | 432 kts | 341° |
| 2026-04-21 08:56 | 38.17189 | -82.04490 | 32342 ft | 432 kts | 341° |
| 2026-04-21 08:56 | 38.22954 | -82.06570 | 32342 ft | 431 kts | 341° |
| 2026-04-21 08:57 | 38.28737 | -82.08660 | 32343 ft | 432 kts | 341° |
| 2026-04-21 08:57 | 38.34501 | -82.10746 | 32347 ft | 431 kts | 341° |
| 2026-04-21 08:58 | 38.40291 | -82.12845 | 32358 ft | 432 kts | 341° |
| 2026-04-21 08:58 | 38.46046 | -82.14934 | 32344 ft | 432 kts | 341° |
| 2026-04-21 08:59 | 38.51954 | -82.16574 | 32345 ft | 435 kts | 348° |
| 2026-04-21 08:59 | 38.57960 | -82.17654 | 32332 ft | 435 kts | 348° |
| 2026-04-21 08:59 | 38.60962 | -82.18201 | 31463 ft | 447 kts | 348° |
| 2026-04-21 09:00 | 38.64049 | -82.18771 | 30729 ft | 445 kts | 348° |
| 2026-04-21 09:00 | 38.67100 | -82.19335 | 29977 ft | 439 kts | 348° |
| 2026-04-21 09:00 | 38.70121 | -82.19897 | 29230 ft | 434 kts | 348° |
| 2026-04-21 09:00 | 38.73061 | -82.20446 | 28570 ft | 428 kts | 348° |
| 2026-04-21 09:01 | 38.75997 | -82.20996 | 27904 ft | 423 kts | 348° |
| 2026-04-21 09:01 | 38.78901 | -82.21541 | 27254 ft | 419 kts | 348° |
| 2026-04-21 09:01 | 38.81750 | -82.22077 | 26620 ft | 415 kts | 348° |
| 2026-04-21 09:01 | 38.84592 | -82.22613 | 25997 ft | 411 kts | 348° |
| 2026-04-21 09:02 | 38.87422 | -82.23146 | 25390 ft | 407 kts | 348° |
| 2026-04-21 09:02 | 38.90217 | -82.23673 | 24787 ft | 405 kts | 348° |
| 2026-04-21 09:02 | 38.92964 | -82.24191 | 24185 ft | 402 kts | 348° |
| 2026-04-21 09:03 | 38.98485 | -82.25234 | 22843 ft | 396 kts | 348° |
| 2026-04-21 09:03 | 39.01203 | -82.25747 | 22239 ft | 392 kts | 348° |
| 2026-04-21 09:03 | 39.03855 | -82.26249 | 21658 ft | 387 kts | 348° |
| 2026-04-21 09:03 | 39.06508 | -82.26751 | 21092 ft | 383 kts | 348° |
| 2026-04-21 09:04 | 39.09140 | -82.27249 | 20537 ft | 380 kts | 348° |
| 2026-04-21 09:04 | 39.11760 | -82.27745 | 19984 ft | 376 kts | 348° |
| 2026-04-21 09:04 | 39.14317 | -82.28229 | 19429 ft | 373 kts | 348° |
| 2026-04-21 09:04 | 39.16885 | -82.28715 | 18902 ft | 371 kts | 348° |
| 2026-04-21 09:05 | 39.19441 | -82.29199 | 18302 ft | 368 kts | 348° |
| 2026-04-21 09:05 | 39.21955 | -82.29678 | 17510 ft | 370 kts | 348° |
| 2026-04-21 09:05 | 39.24502 | -82.30165 | 16864 ft | 369 kts | 348° |
| 2026-04-21 09:05 | 39.27037 | -82.30646 | 16295 ft | 366 kts | 348° |
| 2026-04-21 09:06 | 39.29550 | -82.31122 | 15743 ft | 363 kts | 348° |
| 2026-04-21 09:06 | 39.32041 | -82.31597 | 15210 ft | 360 kts | 348° |
| 2026-04-21 09:06 | 39.33678 | -82.31908 | 14874 ft | 358 kts | 348° |
| 2026-04-21 09:06 | 39.36930 | -82.32529 | 14167 ft | 355 kts | 349° |
| 2026-04-21 09:07 | 39.39371 | -82.32995 | 13648 ft | 352 kts | 349° |
| 2026-04-21 09:07 | 39.40972 | -82.33300 | 13280 ft | 350 kts | 349° |
| 2026-04-21 09:07 | 39.43380 | -82.33760 | 12765 ft | 347 kts | 349° |
| 2026-04-21 09:07 | 39.45767 | -82.34216 | 12271 ft | 344 kts | 349° |
| 2026-04-21 09:08 | 39.48108 | -82.34759 | 11736 ft | 339 kts | 343° |
| 2026-04-21 09:08 | 39.50318 | -82.35788 | 11239 ft | 336 kts | 335° |
| 2026-04-21 09:08 | 39.52372 | -82.37109 | 10979 ft | 327 kts | 330° |
| 2026-04-21 09:08 | 39.54239 | -82.38726 | 10803 ft | 316 kts | 324° |
| 2026-04-21 09:09 | 39.55981 | -82.40392 | 10650 ft | 306 kts | 324° |
| 2026-04-21 09:09 | 39.57670 | -82.42008 | 10517 ft | 297 kts | 324° |
| 2026-04-21 09:09 | 39.59310 | -82.43573 | 10396 ft | 288 kts | 324° |
| 2026-04-21 09:09 | 39.60881 | -82.45069 | 10274 ft | 279 kts | 324° |
| 2026-04-21 09:10 | 39.62432 | -82.46544 | 10146 ft | 270 kts | 324° |
| 2026-04-21 09:10 | 39.63927 | -82.47962 | 10033 ft | 262 kts | 324° |
| 2026-04-21 09:10 | 39.65372 | -82.49335 | 9831 ft | 256 kts | 324° |
| 2026-04-21 09:10 | 39.66803 | -82.50693 | 9483 ft | 256 kts | 323° |
| 2026-04-21 09:11 | 39.68238 | -82.52055 | 9166 ft | 255 kts | 323° |
| 2026-04-21 09:11 | 39.69672 | -82.53416 | 8821 ft | 255 kts | 323° |
| 2026-04-21 09:11 | 39.71091 | -82.54763 | 8492 ft | 255 kts | 323° |
| 2026-04-21 09:11 | 39.72542 | -82.56094 | 8151 ft | 255 kts | 325° |
| 2026-04-21 09:12 | 39.74013 | -82.57375 | 7829 ft | 254 kts | 325° |
| 2026-04-21 09:12 | 39.75488 | -82.58658 | 7508 ft | 253 kts | 324° |
| 2026-04-21 09:12 | 39.76938 | -82.59924 | 7183 ft | 249 kts | 324° |
| 2026-04-21 09:12 | 39.78367 | -82.61178 | 6873 ft | 245 kts | 324° |
| 2026-04-21 09:13 | 39.79757 | -82.62400 | 6555 ft | 242 kts | 324° |
| 2026-04-21 09:13 | 39.81172 | -82.63540 | 6215 ft | 238 kts | 335° |
| 2026-04-21 09:13 | 39.82820 | -82.63919 | 5937 ft | 242 kts | 353° |
| 2026-04-21 09:13 | 39.84505 | -82.64061 | 5664 ft | 249 kts | 351° |
| 2026-04-21 09:14 | 39.86246 | -82.64255 | 5488 ft | 247 kts | 351° |
| 2026-04-21 09:14 | 39.87928 | -82.64437 | 5346 ft | 237 kts | 351° |
| 2026-04-21 09:14 | 39.89524 | -82.64606 | 5126 ft | 230 kts | 350° |
| 2026-04-21 09:14 | 39.91088 | -82.64848 | 4832 ft | 220 kts | 341° |
| 2026-04-21 09:15 | 39.92522 | -82.65413 | 4574 ft | 214 kts | 336° |
| 2026-04-21 09:15 | 39.93927 | -82.66028 | 4310 ft | 214 kts | 337° |
| 2026-04-21 09:15 | 39.95342 | -82.66636 | 4098 ft | 213 kts | 336° |
| 2026-04-21 09:15 | 39.96575 | -82.67633 | 3770 ft | 209 kts | 306° |
| 2026-04-21 09:16 | 39.97379 | -82.69147 | 3541 ft | 199 kts | 300° |
| 2026-04-21 09:16 | 39.98124 | -82.70610 | 3254 ft | 182 kts | 290° |
| 2026-04-21 09:16 | 39.98303 | -82.72139 | 3047 ft | 169 kts | 266° |
| 2026-04-21 09:16 | 39.98364 | -82.73670 | 2858 ft | 172 kts | 270° |
| 2026-04-21 09:17 | 39.98458 | -82.75230 | 2601 ft | 173 kts | 270° |
| 2026-04-21 09:17 | 39.98550 | -82.76797 | 2378 ft | 173 kts | 269° |
| 2026-04-21 09:17 | 39.98643 | -82.78363 | 2149 ft | 174 kts | 269° |
| 2026-04-21 09:17 | 39.98735 | -82.79942 | 1917 ft | 174 kts | 269° |
| 2026-04-21 09:18 | 39.98824 | -82.81497 | 1661 ft | 173 kts | 270° |
| 2026-04-21 09:18 | 39.98912 | -82.83054 | 1429 ft | 171 kts | 272° |
| 2026-04-21 09:18 | 39.99002 | -82.84613 | 1219 ft | 173 kts | 272° |
| 2026-04-21 09:18 | 39.99093 | -82.86190 | 1004 ft | 174 kts | 272° |
| 2026-04-21 09:19 | 39.99180 | -82.87727 | 948 ft | 177 kts | 272° |
| 2026-04-21 09:19 | 39.99272 | -82.89352 | 943 ft | 168 kts | 275° |
| 2026-04-21 09:19 | 39.99355 | -82.90716 | 827 ft | 113 kts | 274° |
| 2026-04-21 09:19 | 39.99376 | -82.91266 | 829 ft | 37 kts | 292° |
| 2026-04-21 09:20 | 39.99526 | -82.91221 | 825 ft | 30 kts | 103° |
| 2026-04-21 09:20 | 39.99524 | -82.90954 | 829 ft | 30 kts | 85° |
| 2026-04-21 09:20 | 39.99526 | -82.90682 | 829 ft | 30 kts | 91° |
| 2026-04-21 09:20 | 39.99511 | -82.90410 | 829 ft | 30 kts | 94° |
| 2026-04-21 09:21 | 39.99506 | -82.90296 | 829 ft | 10 kts | 93° |
| 2026-04-21 09:21 | 39.99502 | -82.90204 | 829 ft | 10 kts | 93° |
| 2026-04-21 09:21 | 39.99497 | -82.90112 | 829 ft | 10 kts | 95° |
| 2026-04-21 09:21 | 39.99491 | -82.90019 | 829 ft | 10 kts | 94° |
| 2026-04-21 09:22 | 39.99486 | -82.89926 | 829 ft | 10 kts | 94° |
| 2026-04-21 09:22 | 39.99480 | -82.89834 | 829 ft | 10 kts | 94° |
| 2026-04-21 09:22 | 39.99474 | -82.89742 | 829 ft | 10 kts | 96° |
| 2026-04-21 09:22 | 39.99470 | -82.89661 | 829 ft | 0 kts | 92° |